Time;durP1;ratioP1;P1;durP2;ratioP2;P2;SDS_P1;SDS_P2;PMS_P1;PMS_P2;Temp;Humidity;BMP_temperature;BMP_pressure;BME280_temperature;BME280_humidity;BME280_pressure;Samples;Min_cycle;Max_cycle;Signal;HPM_P1;HPM_P2
2022/03/25 00:01:22;;;;;;;;;;;;;;;22.27;15.56;97967.81;4978079;28;984;-75
2022/03/25 00:03:48;;;;;;;;;;;;;;;22.46;15.64;97954.69;4958311;29;1039;-75
2022/03/25 00:06:13;;;;;;;;;;;;;;;22.29;15.73;97957.63;4958593;29;1005;-75
2022/03/25 00:08:39;;;;;;;;;;;;;;;21.71;16.03;97960.50;4958684;29;1910;-75
2022/03/25 00:11:04;;;;;;;;;;;;;;;21.49;16.29;97950.97;4942663;29;976;-74
2022/03/25 00:13:30;;;;;;;;;;;;;;;22.02;16.08;97949.50;4958658;28;1119;-75
2022/03/25 00:15:56;;;;;;;;;;;;;;;22.47;15.64;97956.28;4958489;29;942;-75
2022/03/25 00:18:21;;;;;;;;;;;;;;;22.65;15.26;97958.56;4958476;29;1001;-75
2022/03/25 00:20:48;;;;;;;;;;;;;;;21.85;15.92;97951.56;4926550;29;959;-75
2022/03/25 00:23:14;;;;;;;;;;;;;;;21.60;16.26;97962.78;4972609;28;982;-74
2022/03/25 00:25:39;;;;;;;;;;;;;;;21.70;16.32;97950.38;4977780;28;1026;-75
2022/03/25 00:28:05;;;;;;;;;;;;;;;22.27;15.67;97954.44;4977658;28;1975;-75
2022/03/25 00:30:30;;;;;;;;;;;;;;;22.55;15.42;97951.97;4977415;28;925;-75
2022/03/25 00:32:56;;;;;;;;;;;;;;;21.98;15.74;97953.66;4977551;28;1004;-75
2022/03/25 00:35:21;;;;;;;;;;;;;;;21.77;16.04;97941.72;4977290;28;1105;-75
2022/03/25 00:37:47;;;;;;;;;;;;;;;21.69;15.94;97943.13;4977280;28;995;-75
2022/03/25 00:40:13;;;;;;;;;;;;;;;21.96;16.10;97951.25;4964476;28;1184;-75
2022/03/25 00:42:38;;;;;;;;;;;;;;;22.35;15.52;97952.97;5016556;28;955;-75
2022/03/25 00:45:05;;;;;;;;;;;;;;;22.45;15.57;97953.09;4999826;28;1185;-75
2022/03/25 00:47:31;;;;;;;;;;;;;;;21.76;15.94;97959.94;5000016;28;1961;-75
2022/03/25 00:49:56;;;;;;;;;;;;;;;21.70;15.99;97958.88;5015847;28;1141;-75
2022/03/25 00:52:22;;;;;;;;;;;;;;;21.78;16.06;97957.44;5015281;28;977;-75
2022/03/25 00:54:48;;;;;;;;;;;;;;;22.35;15.47;97961.47;5016220;28;929;-75
2022/03/25 00:57:14;;;;;;;;;;;;;;;22.59;15.08;97961.19;4983666;28;1243;-75
2022/03/25 00:59:39;;;;;;;;;;;;;;;22.68;14.95;97957.66;4957555;29;1131;-75
2022/03/25 01:02:07;;;;;;;;;;;;;;;22.05;15.74;97954.25;4957541;29;1534;-74
2022/03/25 01:04:33;;;;;;;;;;;;;;;21.82;15.93;97951.69;4957665;29;927;-75
2022/03/25 01:06:59;;;;;;;;;;;;;;;21.76;15.91;97959.94;4943170;29;1020;-75
2022/03/25 01:09:25;;;;;;;;;;;;;;;21.79;15.84;97964.69;4903734;29;1998;-75
2022/03/25 01:11:50;;;;;;;;;;;;;;;22.32;15.42;97972.91;4919118;29;1172;-75
2022/03/25 01:14:19;;;;;;;;;;;;;;;22.65;14.91;97973.53;4863080;29;1238;-75
2022/03/25 01:16:44;;;;;;;;;;;;;;;22.11;15.52;97974.34;4844296;29;1173;-75
2022/03/25 01:19:10;;;;;;;;;;;;;;;21.81;15.83;97973.56;4844280;29;1062;-75
2022/03/25 01:21:36;;;;;;;;;;;;;;;21.52;15.91;97975.56;4844387;29;951;-75
2022/03/25 01:24:01;;;;;;;;;;;;;;;22.19;15.37;97975.75;4844484;29;1076;-75
2022/03/25 01:26:26;;;;;;;;;;;;;;;22.45;15.06;97975.78;4844191;29;1249;-75
2022/03/25 01:28:52;;;;;;;;;;;;;;;22.35;15.35;97978.50;4844140;29;1915;-75
2022/03/25 01:31:18;;;;;;;;;;;;;;;21.87;15.64;97984.34;4891217;29;1121;-75
2022/03/25 01:33:44;;;;;;;;;;;;;;;21.60;16.08;97979.78;4899931;29;1166;-75
2022/03/25 01:36:09;;;;;;;;;;;;;;;21.60;15.80;97985.44;4899838;29;1148;-75
2022/03/25 01:38:35;;;;;;;;;;;;;;;22.21;15.57;97978.91;4899460;29;1049;-75
2022/03/25 01:41:00;;;;;;;;;;;;;;;22.54;14.96;97978.75;4899685;29;1212;-75
2022/03/25 01:43:26;;;;;;;;;;;;;;;21.97;15.53;97975.53;4899758;29;943;-76
2022/03/25 01:45:52;;;;;;;;;;;;;;;21.63;15.96;97972.44;4915716;29;999;-75
2022/03/25 01:48:18;;;;;;;;;;;;;;;21.67;16.01;97979.59;4937520;29;1984;-75
2022/03/25 01:50:45;;;;;;;;;;;;;;;22.10;15.47;97984.06;4952437;28;988;-76
2022/03/25 01:53:11;;;;;;;;;;;;;;;22.49;15.14;97985.00;4956491;29;898;-76
2022/03/25 01:55:37;;;;;;;;;;;;;;;22.26;15.16;97988.91;4899285;29;993;-75
2022/03/25 01:58:02;;;;;;;;;;;;;;;21.87;15.74;97987.19;4880757;29;1220;-75
2022/03/25 02:00:29;;;;;;;;;;;;;;;21.69;15.86;97994.09;4862021;29;1277;-75
2022/03/25 02:02:54;;;;;;;;;;;;;;;21.93;15.73;97985.38;4889944;29;940;-75
2022/03/25 02:05:20;;;;;;;;;;;;;;;22.50;15.16;97990.19;4883924;29;1079;-75
2022/03/25 02:07:46;;;;;;;;;;;;;;;22.63;14.79;97990.19;4877435;29;1974;-75
2022/03/25 02:10:11;;;;;;;;;;;;;;;21.93;15.47;97985.38;4862108;29;1062;-75
2022/03/25 02:12:39;;;;;;;;;;;;;;;21.74;15.88;97989.94;4846452;29;1155;-75
2022/03/25 02:15:05;;;;;;;;;;;;;;;21.68;15.88;97989.69;4846752;29;1221;-75
2022/03/25 02:17:32;;;;;;;;;;;;;;;22.28;15.27;97987.22;4846075;29;1297;-75
2022/03/25 02:19:57;;;;;;;;;;;;;;;22.41;14.99;97992.09;4809974;29;1275;-75
2022/03/25 02:22:23;;;;;;;;;;;;;;;22.10;15.13;97989.72;4825381;29;1122;-75
2022/03/25 02:24:49;;;;;;;;;;;;;;;21.83;15.72;97993.72;4825344;29;1162;-75
2022/03/25 02:27:16;;;;;;;;;;;;;;;21.44;16.12;97989.09;4853326;29;1647;-75
2022/03/25 02:29:42;;;;;;;;;;;;;;;22.04;15.41;97991.53;4876051;29;993;-75
2022/03/25 02:32:08;;;;;;;;;;;;;;;22.44;15.01;97997.69;4880358;29;1342;-75
2022/03/25 02:34:33;;;;;;;;;;;;;;;22.78;14.79;97994.19;4880307;29;1073;-75
2022/03/25 02:37:00;;;;;;;;;;;;;;;22.10;15.26;97990.56;4880304;29;1233;-75
2022/03/25 02:39:27;;;;;;;;;;;;;;;21.71;15.83;97988.81;4880130;29;1224;-75
2022/03/25 02:41:53;;;;;;;;;;;;;;;21.69;15.55;97993.31;4880377;29;1362;-74
2022/03/25 02:44:19;;;;;;;;;;;;;;;22.14;15.39;97996.13;4880078;29;1579;-75
2022/03/25 02:46:45;;;;;;;;;;;;;;;22.55;14.80;97991.69;4894928;29;1259;-75
2022/03/25 02:49:11;;;;;;;;;;;;;;;22.35;15.13;97995.50;4898626;29;1903;-75
2022/03/25 02:51:37;;;;;;;;;;;;;;;21.70;15.74;97997.72;4913398;29;1000;-75
2022/03/25 02:54:03;;;;;;;;;;;;;;;21.69;15.55;97999.78;4917917;29;979;-75
2022/03/25 02:56:28;;;;;;;;;;;;;;;21.80;15.67;97994.59;4947655;29;1035;-75
2022/03/25 02:58:54;;;;;;;;;;;;;;;22.32;14.88;98002.06;4987377;28;934;-75
2022/03/25 03:01:19;;;;;;;;;;;;;;;22.57;14.76;98000.53;4996617;28;966;-75
2022/03/25 03:03:45;;;;;;;;;;;;;;;22.03;15.25;98001.28;4996776;28;932;-74
2022/03/25 03:06:10;;;;;;;;;;;;;;;21.78;15.44;98005.59;4996845;28;1024;-75
2022/03/25 03:08:36;;;;;;;;;;;;;;;21.63;15.52;98007.22;4996717;28;1977;-75
2022/03/25 03:11:02;;;;;;;;;;;;;;;21.92;15.54;98014.97;4996893;28;877;-75
2022/03/25 03:13:27;;;;;;;;;;;;;;;22.40;15.05;98010.38;4995699;28;1034;-75
2022/03/25 03:15:53;;;;;;;;;;;;;;;22.58;14.85;98007.78;5000535;28;993;-75
2022/03/25 03:18:20;;;;;;;;;;;;;;;21.83;15.56;98016.38;5000606;28;934;-75
2022/03/25 03:20:46;;;;;;;;;;;;;;;21.74;15.39;98007.72;4982549;28;990;-75
2022/03/25 03:23:11;;;;;;;;;;;;;;;21.68;15.48;98001.03;5000464;28;896;-75
2022/03/25 03:25:36;;;;;;;;;;;;;;;22.04;15.39;98002.88;5000563;28;914;-75
2022/03/25 03:28:03;;;;;;;;;;;;;;;22.41;14.74;98003.44;5000493;28;1914;-75
2022/03/25 03:30:29;;;;;;;;;;;;;;;22.17;15.11;98005.75;5000750;28;976;-75
2022/03/25 03:33:04;;;;;;;;;;;;;;;21.80;15.52;98003.09;5000854;28;1042;-75
2022/03/25 03:35:30;;;;;;;;;;;;;;;21.65;15.78;98004.72;5000553;28;1091;-75
2022/03/25 03:37:55;;;;;;;;;;;;;;;22.27;15.01;98002.63;5000661;28;970;-75
2022/03/25 03:40:21;;;;;;;;;;;;;;;22.61;14.77;98006.88;5000211;28;906;-75
2022/03/25 03:42:46;;;;;;;;;;;;;;;22.07;15.22;98004.78;5000623;28;1005;-75
2022/03/25 03:45:12;;;;;;;;;;;;;;;21.65;15.79;98004.72;5003392;28;1126;-74
2022/03/25 03:47:38;;;;;;;;;;;;;;;21.69;15.61;98002.59;5009023;28;1972;-76
2022/03/25 03:50:04;;;;;;;;;;;;;;;22.43;15.01;98013.09;5012587;28;1218;-75
2022/03/25 03:52:30;;;;;;;;;;;;;;;22.62;14.61;98009.25;5019840;28;1016;-76
2022/03/25 03:54:55;;;;;;;;;;;;;;;22.23;15.16;98010.44;5019572;28;1008;-76
2022/03/25 03:57:21;;;;;;;;;;;;;;;21.82;15.50;98003.47;5024676;28;1098;-76
2022/03/25 03:59:46;;;;;;;;;;;;;;;21.65;15.43;98013.22;5029141;28;1311;-76
2022/03/25 04:02:12;;;;;;;;;;;;;;;22.11;14.98;98014.03;4970248;28;1285;-76
2022/03/25 04:04:37;;;;;;;;;;;;;;;22.67;14.56;98026.97;4988389;28;1373;-76
2022/03/25 04:07:03;;;;;;;;;;;;;;;22.64;14.81;98028.69;4986408;28;1242;-75
2022/03/25 04:09:28;;;;;;;;;;;;;;;21.65;15.60;98035.88;4991646;28;1973;-76
2022/03/25 04:11:54;;;;;;;;;;;;;;;21.70;15.34;98028.88;4997428;28;958;-76
2022/03/25 04:14:20;;;;;;;;;;;;;;;21.41;15.55;98035.31;4997515;28;982;-75
2022/03/25 04:16:45;;;;;;;;;;;;;;;22.34;14.95;98022.25;4939173;29;984;-76
2022/03/25 04:19:11;;;;;;;;;;;;;;;22.58;14.53;98030.47;4936341;29;1152;-76
2022/03/25 04:21:36;;;;;;;;;;;;;;;22.20;14.90;98021.88;4929063;29;1254;-76
2022/03/25 04:24:02;;;;;;;;;;;;;;;21.68;15.47;98020.84;4930258;29;1362;-75
2022/03/25 04:26:27;;;;;;;;;;;;;;;21.65;15.50;98013.22;4928309;29;1257;-76
2022/03/25 04:28:54;;;;;;;;;;;;;;;22.00;15.20;98019.16;4928768;29;1975;-76
2022/03/25 04:31:20;;;;;;;;;;;;;;;22.41;15.01;98014.78;4929848;29;1303;-76
2022/03/25 04:33:45;;;;;;;;;;;;;;;22.26;15.02;98009.53;4928122;29;1338;-76
2022/03/25 04:36:11;;;;;;;;;;;;;;;21.84;15.39;98017.97;4930927;29;1304;-76
2022/03/25 04:38:36;;;;;;;;;;;;;;;21.66;15.60;98017.66;4942155;28;977;-76
2022/03/25 04:41:02;;;;;;;;;;;;;;;21.76;15.66;98021.44;4944848;28;1048;-76
2022/03/25 04:43:28;;;;;;;;;;;;;;;22.35;15.06;98023.84;4957897;29;1112;-76
2022/03/25 04:45:54;;;;;;;;;;;;;;;22.55;14.69;98042.72;4958067;29;1018;-76
2022/03/25 04:48:19;;;;;;;;;;;;;;;21.95;15.18;98039.53;5001614;28;1906;-76
2022/03/25 04:50:45;;;;;;;;;;;;;;;21.78;15.63;98044.47;5016286;28;1071;-75
2022/03/25 04:53:10;;;;;;;;;;;;;;;21.61;15.89;98063.50;5016294;28;947;-76
2022/03/25 04:55:36;;;;;;;;;;;;;;;22.17;15.36;98068.91;4999807;28;1055;-75
2022/03/25 04:58:02;;;;;;;;;;;;;;;22.56;14.75;98067.00;5015993;28;1311;-76
2022/03/25 05:00:27;;;;;;;;;;;;;;;22.14;14.99;98074.69;5016231;28;1009;-75
2022/03/25 05:02:53;;;;;;;;;;;;;;;21.70;15.60;98089.16;5015989;28;999;-75
2022/03/25 05:05:18;;;;;;;;;;;;;;;21.55;15.77;98091.56;5016369;28;961;-75
2022/03/25 05:07:44;;;;;;;;;;;;;;;21.70;15.93;98096.84;5015733;28;1966;-76
2022/03/25 05:10:13;;;;;;;;;;;;;;;22.31;15.32;98094.03;5016032;28;997;-76
2022/03/25 05:12:39;;;;;;;;;;;;;;;22.53;14.87;98090.56;5015432;28;1220;-76
2022/03/25 05:15:05;;;;;;;;;;;;;;;22.14;15.33;98086.81;4991336;28;978;-76
2022/03/25 05:17:30;;;;;;;;;;;;;;;21.79;15.45;98097.81;4957122;29;977;-76
2022/03/25 05:19:56;;;;;;;;;;;;;;;21.60;15.60;98093.03;4957587;29;953;-76
2022/03/25 05:22:21;;;;;;;;;;;;;;;22.08;15.37;98088.56;4957599;29;911;-76
2022/03/25 05:24:47;;;;;;;;;;;;;;;22.47;14.94;98098.03;4957089;29;984;-76
2022/03/25 05:27:12;;;;;;;;;;;;;;;22.59;14.67;98088.81;4957459;29;997;-76
2022/03/25 05:29:38;;;;;;;;;;;;;;;21.51;15.76;98050.44;4956885;29;1978;-76
2022/03/25 05:32:03;;;;;;;;;;;;;;;21.73;15.61;98091.09;4957670;29;933;-76
2022/03/25 05:34:29;;;;;;;;;;;;;;;21.62;15.92;98095.44;4957204;29;960;-76
2022/03/25 05:36:54;;;;;;;;;;;;;;;21.97;15.45;98094.53;4956774;28;1045;-76
2022/03/25 05:39:20;;;;;;;;;;;;;;;22.49;14.98;98098.41;4957129;29;1077;-76
2022/03/25 05:41:45;;;;;;;;;;;;;;;22.14;15.16;98098.16;4925147;29;1007;-76
2022/03/25 05:44:11;;;;;;;;;;;;;;;21.71;15.79;98099.25;4957091;29;989;-76
2022/03/25 05:46:38;;;;;;;;;;;;;;;21.63;15.82;98102.69;4971274;28;902;-76
2022/03/25 05:49:04;;;;;;;;;;;;;;;22.08;15.35;98111.25;5021324;28;1918;-76
2022/03/25 05:51:29;;;;;;;;;;;;;;;22.45;15.20;98111.88;4995449;28;987;-76
2022/03/25 05:53:55;;;;;;;;;;;;;;;22.65;14.76;98120.22;4995599;28;1299;-77
2022/03/25 05:56:20;;;;;;;;;;;;;;;21.96;15.60;98114.78;4995539;28;970;-76
2022/03/25 05:58:46;;;;;;;;;;;;;;;21.63;15.73;98125.34;4995477;28;963;-77
2022/03/25 06:01:11;;;;;;;;;;;;;;;21.69;15.91;98121.53;4995292;28;876;-77
2022/03/25 06:03:37;;;;;;;;;;;;;;;22.34;15.10;98121.47;4995418;28;931;-78
2022/03/25 06:06:03;;;;;;;;;;;;;;;22.61;15.17;98131.66;4995440;28;1015;-78
2022/03/25 06:08:30;;;;;;;;;;;;;;;21.85;15.52;98127.19;4995241;28;1918;-77
2022/03/25 06:10:55;;;;;;;;;;;;;;;21.81;15.56;98123.69;4956417;28;1026;-77
2022/03/25 06:13:21;;;;;;;;;;;;;;;21.55;16.03;98124.72;4956396;29;911;-77
2022/03/25 06:15:47;;;;;;;;;;;;;;;22.19;15.39;98131.63;4956596;28;1016;-77
2022/03/25 06:18:13;;;;;;;;;;;;;;;22.55;14.95;98128.59;4940396;29;1042;-77
2022/03/25 06:20:38;;;;;;;;;;;;;;;22.35;15.23;98120.22;4956098;29;1085;-77
2022/03/25 06:23:04;;;;;;;;;;;;;;;21.77;15.70;98120.13;4956001;29;933;-77
2022/03/25 06:25:29;;;;;;;;;;;;;;;21.53;16.07;98122.34;4956542;29;1052;-77
2022/03/25 06:27:55;;;;;;;;;;;;;;;21.61;16.02;98128.63;4956268;29;1992;-77
2022/03/25 06:30:21;;;;;;;;;;;;;;;22.26;15.16;98130.63;4956196;29;911;-77
2022/03/25 06:32:47;;;;;;;;;;;;;;;22.58;15.25;98121.22;4980605;28;1287;-77
2022/03/25 06:35:13;;;;;;;;;;;;;;;22.58;14.84;98126.88;4985128;28;1309;-77
2022/03/25 06:37:39;;;;;;;;;;;;;;;22.12;15.26;98134.63;4983391;28;1325;-77
2022/03/25 06:40:07;;;;;;;;;;;;;;;21.72;15.93;98132.00;4984725;28;1233;-77
2022/03/25 06:42:33;;;;;;;;;;;;;;;21.70;15.92;98134.47;5017427;28;1376;-77
2022/03/25 06:44:59;;;;;;;;;;;;;;;22.28;15.29;98128.94;5007510;28;1288;-77
2022/03/25 06:47:25;;;;;;;;;;;;;;;22.62;15.24;98142.56;5026709;28;1529;-77
2022/03/25 06:49:51;;;;;;;;;;;;;;;22.14;15.73;98137.81;5026186;28;1971;-77
2022/03/25 06:52:16;;;;;;;;;;;;;;;21.85;16.01;98149.06;5016077;28;1197;-77
2022/03/25 06:54:42;;;;;;;;;;;;;;;21.56;16.30;98149.00;5016283;28;1249;-76
2022/03/25 06:57:09;;;;;;;;;;;;;;;22.07;15.87;98149.31;5025916;28;1292;-77
2022/03/25 06:59:34;;;;;;;;;;;;;;;22.57;15.27;98148.78;5025024;28;1277;-77
2022/03/25 07:02:00;;;;;;;;;;;;;;;22.44;15.14;98147.16;5027779;28;1115;-77
2022/03/25 07:04:25;;;;;;;;;;;;;;;21.87;15.67;98151.47;5036130;28;823;-76
2022/03/25 07:06:51;;;;;;;;;;;;;;;21.66;15.78;98150.75;5036014;28;1113;-77
2022/03/25 07:09:16;;;;;;;;;;;;;;;21.81;16.08;98143.50;5013964;28;1969;-77
2022/03/25 07:11:42;;;;;;;;;;;;;;;22.31;15.63;98153.53;5014110;28;1054;-77
2022/03/25 07:14:08;;;;;;;;;;;;;;;22.59;15.29;98149.16;5013728;28;1184;-76
2022/03/25 07:16:33;;;;;;;;;;;;;;;22.17;15.52;98145.41;5014369;28;970;-77
2022/03/25 07:19:02;;;;;;;;;;;;;;;21.76;16.13;98149.69;5013854;28;1125;-77
2022/03/25 07:21:29;;;;;;;;;;;;;;;21.51;16.01;98158.00;5008105;28;1213;-77
2022/03/25 07:23:57;;;;;;;;;;;;;;;22.22;15.76;98150.53;4994523;28;999;-77
2022/03/25 07:26:23;;;;;;;;;;;;;;;22.63;15.13;98149.81;4994416;28;1064;-76
2022/03/25 07:28:48;;;;;;;;;;;;;;;22.70;15.02;98146.00;4994088;28;1902;-76
2022/03/25 07:31:14;;;;;;;;;;;;;;;22.76;15.20;98149.88;4955108;28;1624;-76
2022/03/25 07:33:39;;;;;;;;;;;;;;;21.90;16.13;98144.91;4955231;28;1064;-76
2022/03/25 07:36:04;;;;;;;;;;;;;;;21.68;16.02;98134.13;4955478;28;1000;-76
2022/03/25 07:38:30;;;;;;;;;;;;;;;21.63;16.08;98148.81;4955361;28;1098;-76
2022/03/25 07:40:55;;;;;;;;;;;;;;;22.41;15.53;98145.22;4970244;28;1184;-76
2022/03/25 07:43:21;;;;;;;;;;;;;;;22.75;15.19;98141.81;4974885;28;950;-77
2022/03/25 07:45:46;;;;;;;;;;;;;;;22.03;15.64;98148.63;4916874;29;1346;-76
2022/03/25 07:48:12;;;;;;;;;;;;;;;21.94;16.08;98145.63;4917118;29;1894;-75
2022/03/25 07:50:37;;;;;;;;;;;;;;;21.81;15.92;98143.50;4917040;29;1190;-76
2022/03/25 07:53:03;;;;;;;;;;;;;;;21.69;16.38;98135.69;4917323;29;1046;-76
2022/03/25 07:55:28;;;;;;;;;;;;;;;22.41;15.31;98139.53;4917155;29;1000;-77
2022/03/25 07:57:54;;;;;;;;;;;;;;;22.74;15.24;98146.69;4917168;29;930;-77
2022/03/25 08:00:19;;;;;;;;;;;;;;;22.00;15.68;98149.50;4918280;29;1064;-76
2022/03/25 08:02:46;;;;;;;;;;;;;;;21.88;15.90;98144.56;4934249;29;1108;-76
2022/03/25 08:05:11;;;;;;;;;;;;;;;21.65;16.42;98140.66;4939710;29;1006;-76
2022/03/25 08:07:41;;;;;;;;;;;;;;;22.23;15.69;98145.69;4939532;29;1973;-77
2022/03/25 08:10:07;;;;;;;;;;;;;;;22.59;15.40;98145.50;4939394;29;978;-76
2022/03/25 08:12:32;;;;;;;;;;;;;;;22.14;15.80;98152.00;4939653;29;1041;-76
2022/03/25 08:14:57;;;;;;;;;;;;;;;21.83;16.24;98143.84;4939415;29;1022;-76
2022/03/25 08:17:24;;;;;;;;;;;;;;;21.70;16.21;98142.16;4940892;28;1124;-75
2022/03/25 08:19:49;;;;;;;;;;;;;;;21.62;16.27;98144.38;4977767;28;1091;-76
2022/03/25 08:22:15;;;;;;;;;;;;;;;22.25;15.61;98138.34;4977829;28;1080;-76
2022/03/25 08:30:08;;;;;;;;;;;;;;;21.70;16.32;98131.63;4977771;28;1116;-76
2022/03/25 08:32:33;;;;;;;;;;;;;;;21.81;16.55;98131.34;4977604;28;1171;-76
2022/03/25 08:34:59;;;;;;;;;;;;;;;22.29;15.80;98129.75;4977583;28;1046;-76
2022/03/25 08:37:24;;;;;;;;;;;;;;;22.52;15.46;98125.84;4977269;28;1016;-76
2022/03/25 08:39:49;;;;;;;;;;;;;;;22.47;15.69;98127.19;4976764;28;1054;-76
2022/03/25 08:42:16;;;;;;;;;;;;;;;21.94;16.19;98132.25;4977276;28;1050;-77
2022/03/25 08:44:42;;;;;;;;;;;;;;;21.72;16.36;98134.03;4977202;28;969;-76
2022/03/25 08:47:07;;;;;;;;;;;;;;;21.63;16.55;98139.50;4977271;28;1008;-76
2022/03/25 08:49:34;;;;;;;;;;;;;;;22.25;15.77;98135.50;4976024;28;1977;-76
2022/03/25 08:52:00;;;;;;;;;;;;;;;22.58;15.75;98135.38;4977052;28;999;-76
2022/03/25 08:54:25;;;;;;;;;;;;;;;22.00;16.08;98135.34;4977164;28;1070;-77
2022/03/25 08:56:51;;;;;;;;;;;;;;;21.91;15.83;98135.16;4977224;28;1015;-77
2022/03/25 08:59:16;;;;;;;;;;;;;;;21.72;16.23;98134.81;4945240;28;1027;-76
2022/03/25 09:01:42;;;;;;;;;;;;;;;22.27;15.76;98130.16;4977205;28;1059;-76
2022/03/25 09:04:08;;;;;;;;;;;;;;;22.49;15.62;98129.59;4976991;28;997;-77
2022/03/25 09:06:34;;;;;;;;;;;;;;;22.29;15.92;98133.38;4976972;28;953;-76
2022/03/25 09:08:59;;;;;;;;;;;;;;;21.90;16.38;98133.56;5007592;28;1910;-77
2022/03/25 09:11:25;;;;;;;;;;;;;;;21.69;16.32;98134.91;5017560;28;920;-77
2022/03/25 09:13:50;;;;;;;;;;;;;;;21.94;16.42;98145.63;5018221;28;904;-76
2022/03/25 09:16:16;;;;;;;;;;;;;;;22.49;15.72;98138.09;5018104;28;1046;-76
2022/03/25 09:18:42;;;;;;;;;;;;;;;22.27;15.97;98127.31;5017818;28;1228;-76
2022/03/25 09:21:07;;;;;;;;;;;;;;;21.73;16.63;98142.09;5018040;28;1005;-76
2022/03/25 09:23:33;;;;;;;;;;;;;;;21.61;16.46;98128.63;5018043;28;945;-76
2022/03/25 09:26:00;;;;;;;;;;;;;;;21.79;16.41;98134.63;5018035;28;964;-77
2022/03/25 09:28:26;;;;;;;;;;;;;;;22.27;16.06;98133.00;5017789;28;1899;-77
2022/03/25 09:30:51;;;;;;;;;;;;;;;22.50;15.70;98131.19;5018353;28;910;-76
2022/03/25 09:33:17;;;;;;;;;;;;;;;22.18;16.16;98138.53;4956823;29;1020;-76
2022/03/25 09:35:42;;;;;;;;;;;;;;;21.82;16.32;98138.63;4957008;29;964;-77
2022/03/25 09:38:08;;;;;;;;;;;;;;;21.47;16.78;98135.44;4957083;29;976;-77
2022/03/25 09:40:33;;;;;;;;;;;;;;;21.76;16.50;98129.88;4956935;29;1024;-76
2022/03/25 09:42:59;;;;;;;;;;;;;;;22.30;15.81;98134.94;4956989;29;1101;-76
2022/03/25 09:45:25;;;;;;;;;;;;;;;22.63;15.55;98135.63;4956624;29;1010;-76
2022/03/25 09:47:50;;;;;;;;;;;;;;;22.03;16.05;98125.94;4956919;29;1966;-77
2022/03/25 09:50:17;;;;;;;;;;;;;;;21.86;16.30;98130.81;4953290;28;1006;-77
2022/03/25 09:52:43;;;;;;;;;;;;;;;21.62;16.67;98123.78;4905800;29;1044;-77
2022/03/25 09:55:08;;;;;;;;;;;;;;;22.04;16.28;98121.88;4937591;29;1060;-76
2022/03/25 09:57:34;;;;;;;;;;;;;;;22.49;15.86;98135.28;4937710;29;1176;-76
2022/03/25 10:00:00;;;;;;;;;;;;;;;22.41;15.64;98128.19;4937123;29;1049;-77
2022/03/25 10:02:25;;;;;;;;;;;;;;;21.73;16.44;98130.75;4937372;29;1102;-77
2022/03/25 10:04:51;;;;;;;;;;;;;;;21.50;16.89;98125.25;4965928;28;1033;-77
2022/03/25 10:07:20;;;;;;;;;;;;;;;21.59;16.81;98131.09;4976052;28;984;-76
2022/03/25 10:09:46;;;;;;;;;;;;;;;22.21;16.15;98120.63;4975703;28;1993;-77
2022/03/25 10:12:21;;;;;;;;;;;;;;;22.53;15.87;98125.38;4975763;28;1128;-77
2022/03/25 10:14:49;;;;;;;;;;;;;;;22.16;15.98;98129.66;4966709;28;1990;-76
2022/03/25 10:17:14;;;;;;;;;;;;;;;21.65;16.45;98128.53;4956319;29;980;-76
2022/03/25 10:19:46;;;;;;;;;;;;;;;21.61;16.67;98125.81;4956505;29;921;-76
2022/03/25 10:22:12;;;;;;;;;;;;;;;22.24;16.12;98125.41;4992352;28;1145;-76
2022/03/25 10:24:41;;;;;;;;;;;;;;;22.57;15.96;98113.97;4996915;28;1041;-76
2022/03/25 10:27:07;;;;;;;;;;;;;;;22.61;15.68;98128.84;4997016;28;987;-76
2022/03/25 10:29:34;;;;;;;;;;;;;;;21.89;16.42;98127.13;4997067;28;1918;-76
2022/03/25 10:32:09;;;;;;;;;;;;;;;21.57;16.66;98128.72;4997412;28;977;-76
2022/03/25 10:34:35;;;;;;;;;;;;;;;21.64;16.75;98133.41;4996824;28;1153;-77
2022/03/25 10:37:01;;;;;;;;;;;;;;;22.00;16.20;98143.84;5007305;28;1091;-77
2022/03/25 10:39:27;;;;;;;;;;;;;;;22.38;16.01;98126.25;5026974;28;1276;-77
2022/03/25 10:41:56;;;;;;;;;;;;;;;22.52;15.78;98135.16;4975155;28;1203;-77
2022/03/25 10:44:29;;;;;;;;;;;;;;;22.00;16.25;98132.50;5020411;28;1023;-76
2022/03/25 10:46:54;;;;;;;;;;;;;;;21.62;16.69;98127.41;5015956;28;1226;-77
2022/03/25 10:49:20;;;;;;;;;;;;;;;21.44;17.02;98124.97;5026243;28;1918;-76
2022/03/25 10:51:52;;;;;;;;;;;;;;;21.32;16.88;98128.50;5030446;28;1217;-77
2022/03/25 10:54:21;;;;;;;;;;;;;;;21.93;16.47;98112.88;5036056;28;978;-76
2022/03/25 10:56:47;;;;;;;;;;;;;;;22.46;16.08;98127.66;5018527;28;1054;-76
2022/03/25 10:59:19;;;;;;;;;;;;;;;22.50;15.92;98131.97;5034173;28;1288;-76
2022/03/25 11:01:45;;;;;;;;;;;;;;;21.94;16.21;98134.28;4996871;28;906;-75
2022/03/25 11:04:10;;;;;;;;;;;;;;;21.67;16.73;98121.19;4995880;28;928;-77
2022/03/25 11:06:39;;;;;;;;;;;;;;;21.49;16.68;98130.13;4996226;28;1100;-76
2022/03/25 11:09:05;;;;;;;;;;;;;;;22.06;16.32;98128.66;4986847;28;1981;-76
2022/03/25 11:11:30;;;;;;;;;;;;;;;22.50;16.08;98128.34;4984123;28;1285;-77
2022/03/25 11:13:56;;;;;;;;;;;;;;;22.49;15.97;98123.94;4968031;28;1243;-77
2022/03/25 11:16:21;;;;;;;;;;;;;;;21.78;16.76;98121.72;4963537;28;1318;-77
2022/03/25 11:18:47;;;;;;;;;;;;;;;21.69;16.77;98120.75;4948867;28;1318;-77
2022/03/25 11:21:13;;;;;;;;;;;;;;;22.03;16.65;98118.25;4957611;28;1239;-77
2022/03/25 11:23:42;;;;;;;;;;;;;;;22.53;16.08;98110.41;4953196;28;1281;-76
2022/03/25 11:26:09;;;;;;;;;;;;;;;22.60;15.74;98113.06;4957125;28;1523;-77
2022/03/25 11:28:34;;;;;;;;;;;;;;;21.97;16.54;98110.75;4934689;29;1906;-77
2022/03/25 11:31:00;;;;;;;;;;;;;;;21.47;17.17;98117.66;4919634;29;1559;-76
2022/03/25 11:33:26;;;;;;;;;;;;;;;21.42;16.92;98104.03;4934790;29;1626;-76
2022/03/25 11:36:10;;;;;;;;;;;;;;;22.05;16.56;98100.78;4923678;29;1903;-71
2022/03/25 11:38:35;;;;;;;;;;;;;;;22.19;16.58;98100.44;4924334;29;1041;-83
2022/03/25 11:41:19;;;;;;;;;;;;;;;22.00;16.94;98096.47;4950452;29;1325;-82
2022/03/25 11:43:44;;;;;;;;;;;;;;;21.87;17.06;98089.16;4948276;29;1608;-82
2022/03/25 11:46:10;;;;;;;;;;;;;;;22.04;17.33;98099.19;4951456;28;1580;-80
2022/03/25 11:48:39;;;;;;;;;;;;;;;22.18;17.06;98098.84;4985813;28;1910;-83
2022/03/25 11:51:33;;;;;;;;;;;;;;;22.16;17.24;98101.31;4976079;28;1028;-81
2022/03/25 11:53:59;;;;;;;;;;;;;;;22.09;17.50;98101.50;4933373;29;1280;-82
2022/03/25 11:56:24;;;;;;;;;;;;;;;22.18;17.70;98109.41;4929402;29;1607;-82
2022/03/25 11:59:00;;;;;;;;;;;;;;;22.17;17.88;98102.13;4924742;29;1787;-79
2022/03/25 12:01:26;;;;;;;;;;;;;;;22.35;17.56;98108.91;4953904;29;1798;-78
2022/03/25 12:03:56;;;;;;;;;;;;;;;22.55;17.70;98110.78;4954338;29;2228;-78
2022/03/25 12:06:25;;;;;;;;;;;;;;;22.74;17.63;98107.00;4958640;29;1260;-79
2022/03/25 12:08:56;;;;;;;;;;;;;;;22.74;17.66;98112.66;4957570;29;1915;-78
2022/03/25 12:11:40;;;;;;;;;;;;;;;22.88;17.83;98119.97;4958596;29;1515;-78
2022/03/25 12:14:05;;;;;;;;;;;;;;;22.82;18.08;98119.69;4958483;29;1558;-79
2022/03/25 12:16:49;;;;;;;;;;;;;;;22.43;18.45;98117.19;4927967;29;1598;-79
2022/03/25 12:19:26;;;;;;;;;;;;;;;22.05;18.64;98112.13;4966226;29;1519;-84
2022/03/25 12:22:02;;;;;;;;;;;;;;;22.11;18.76;98121.69;4965228;29;2035;-83
2022/03/25 12:24:28;;;;;;;;;;;;;;;22.19;18.22;98123.13;4965050;29;1342;-82
2022/03/25 12:26:54;;;;;;;;;;;;;;;22.25;18.47;98131.88;4910016;29;1477;-82
2022/03/25 12:29:19;;;;;;;;;;;;;;;22.63;18.10;98129.16;4911021;29;1992;-82
2022/03/25 12:31:51;;;;;;;;;;;;;;;22.39;18.51;98144.88;4948342;29;1586;-83
2022/03/25 12:34:16;;;;;;;;;;;;;;;22.27;18.95;98141.50;4908465;29;1026;-83
2022/03/25 12:36:49;;;;;;;;;;;;;;;22.61;18.68;98143.00;4909258;29;1377;-83
2022/03/25 12:39:15;;;;;;;;;;;;;;;22.23;19.09;98140.81;4909723;29;1047;-84
2022/03/25 12:41:45;;;;;;;;;;;;;;;22.30;19.17;98134.94;4911860;29;1014;-83
2022/03/25 12:44:10;;;;;;;;;;;;;;;22.06;19.66;98145.66;4908614;29;938;-83
2022/03/25 12:46:35;;;;;;;;;;;;;;;22.08;19.69;98150.91;4910350;29;1312;-82
2022/03/25 12:49:04;;;;;;;;;;;;;;;22.09;19.55;98146.84;4906224;29;1923;-79
2022/03/25 12:51:30;;;;;;;;;;;;;;;21.90;20.17;98147.72;4904621;29;1014;-82
2022/03/25 12:53:55;;;;;;;;;;;;;;;22.23;19.80;98152.16;4906934;29;1443;-82
2022/03/25 12:56:21;;;;;;;;;;;;;;;22.43;19.87;98148.38;4910033;29;978;-81
2022/03/25 12:58:46;;;;;;;;;;;;;;;22.33;19.88;98162.41;4922476;29;1190;-83
2022/03/25 13:01:17;;;;;;;;;;;;;;;22.39;19.96;98147.69;4921016;29;1009;-76